Time;durP1;ratioP1;P1;durP2;ratioP2;P2;SDS_P1;SDS_P2;PMS_P1;PMS_P2;Temp;Humidity;BMP_temperature;BMP_pressure;BME280_temperature;BME280_humidity;BME280_pressure;Samples;Min_cycle;Max_cycle;Signal;HPM_P1;HPM_P2
2021/05/22 00:01:20;;;;;;;2.12;1.30;;;;;;;12.62;71.67;99196.47;1780911;79;21513;-83
2021/05/22 00:03:46;;;;;;;1.67;0.80;;;;;;;12.63;71.75;99184.06;1781006;79;21422;-83
2021/05/22 00:06:12;;;;;;;2.27;1.00;;;;;;;12.63;71.68;99199.44;1780635;80;21492;-83
2021/05/22 00:08:38;;;;;;;1.60;0.80;;;;;;;12.62;72.13;99211.02;1786664;79;21030;-82
2021/05/22 00:11:04;;;;;;;3.83;1.25;;;;;;;12.62;72.12;99216.81;1812219;79;21039;-82
2021/05/22 00:13:30;;;;;;;1.05;0.75;;;;;;;12.62;71.92;99214.16;1812498;79;21465;-83
2021/05/22 00:15:56;;;;;;;1.67;1.10;;;;;;;12.62;71.79;99200.44;1812538;79;21110;-83
2021/05/22 00:18:22;;;;;;;2.25;1.07;;;;;;;12.62;71.71;99190.34;1810271;79;20991;-83
2021/05/22 00:20:48;;;;;;;2.02;0.88;;;;;;;12.60;71.82;99189.19;1806740;79;21034;-83
2021/05/22 00:23:15;;;;;;;1.70;1.15;;;;;;;12.58;71.77;99189.82;1805116;79;21050;-83
2021/05/22 00:25:41;;;;;;;1.50;1.15;;;;;;;12.59;71.82;99185.36;1805080;79;21038;-84
2021/05/22 00:28:07;;;;;;;2.27;1.52;;;;;;;12.59;71.80;99194.62;1804540;79;21046;-84
2021/05/22 00:30:33;;;;;;;1.95;1.17;;;;;;;12.60;71.95;99200.23;1789084;79;21023;-83
2021/05/22 00:32:59;;;;;;;2.95;1.07;;;;;;;12.60;71.96;99199.77;1785718;79;21053;-83
2021/05/22 00:35:25;;;;;;;3.02;1.10;;;;;;;12.60;72.03;99195.80;1812672;79;21050;-83
2021/05/22 00:37:51;;;;;;;1.80;0.68;;;;;;;12.59;72.02;99190.64;1812615;79;21066;-84
2021/05/22 00:40:17;;;;;;;3.25;0.95;;;;;;;12.59;72.14;99195.45;1811776;79;21050;-83
2021/05/22 00:42:44;;;;;;;3.05;1.05;;;;;;;12.58;72.31;99201.73;1793604;79;21038;-83
2021/05/22 00:45:17;;;;;;;2.30;1.10;;;;;;;12.58;72.55;99208.34;1781012;79;21062;-83
2021/05/22 00:47:47;;;;;;;1.60;1.00;;;;;;;12.58;72.72;99200.91;1780809;80;21015;-83
2021/05/22 00:50:27;;;;;;;3.10;1.22;;;;;;;12.56;72.59;99201.53;1780917;79;21094;-83
2021/05/22 00:52:54;;;;;;;1.47;1.05;;;;;;;12.55;72.44;99195.41;1779970;79;21520;-83
2021/05/22 00:55:22;;;;;;;1.42;1.00;;;;;;;12.54;72.40;99195.09;1780731;79;21019;-84
2021/05/22 00:57:48;;;;;;;1.55;0.88;;;;;;;12.53;72.38;99201.34;1780636;79;21042;-84
2021/05/22 01:00:18;;;;;;;2.83;1.07;;;;;;;12.53;72.42;99201.83;1780689;79;21007;-83
2021/05/22 01:02:44;;;;;;;2.67;1.20;;;;;;;12.52;72.43;99198.86;1780541;80;21097;-83
2021/05/22 01:05:12;;;;;;;2.87;1.17;;;;;;;12.53;72.56;99201.34;1781194;80;21057;-84
2021/05/22 01:07:39;;;;;;;1.65;1.07;;;;;;;12.53;72.73;99192.08;1787663;79;20967;-84
2021/05/22 01:10:08;;;;;;;2.45;1.20;;;;;;;12.53;72.73;99178.84;1781451;79;21038;-83
2021/05/22 01:12:39;;;;;;;2.52;1.25;;;;;;;12.52;72.81;99164.45;1796956;79;21008;-83
2021/05/22 01:15:15;;;;;;;1.67;1.00;;;;;;;12.52;72.80;99170.58;1812974;79;21167;-83
2021/05/22 01:17:48;;;;;;;1.98;1.05;;;;;;;12.50;72.79;99168.56;1810304;79;21070;-83
2021/05/22 01:20:31;;;;;;;1.22;0.80;;;;;;;12.50;72.89;99172.53;1804663;79;21057;-83
2021/05/22 01:23:05;;;;;;;1.72;0.90;;;;;;;12.49;72.76;99171.38;1804917;79;21046;-83
2021/05/22 01:25:39;;;;;;;2.87;1.35;;;;;;;12.47;72.77;99169.36;1805422;79;21042;-83
2021/05/22 01:28:09;;;;;;;3.00;1.82;;;;;;;12.44;72.89;99164.73;1804609;79;21026;-83
2021/05/22 01:30:35;;;;;;;2.12;0.98;;;;;;;12.43;72.93;99167.02;1812504;79;20978;-83
2021/05/22 01:33:03;;;;;;;1.98;1.15;;;;;;;12.40;73.00;99166.02;1780766;79;21525;-83
2021/05/22 01:35:30;;;;;;;1.72;1.37;;;;;;;12.40;72.94;99161.20;1796943;79;21019;-83
2021/05/22 01:37:57;;;;;;;1.52;1.10;;;;;;;12.38;72.88;99153.42;1781549;79;21043;-83
2021/05/22 01:40:23;;;;;;;2.98;1.32;;;;;;;12.38;72.91;99143.34;1813069;79;21034;-83
2021/05/22 01:42:49;;;;;;;1.70;1.00;;;;;;;12.37;72.95;99139.02;1810716;79;21000;-83
2021/05/22 01:45:20;;;;;;;4.17;1.35;;;;;;;12.35;72.92;99128.59;1805411;79;21047;-83
2021/05/22 01:47:48;;;;;;;2.83;1.42;;;;;;;12.35;73.01;99119.84;1805172;79;21034;-83
2021/05/22 01:50:17;;;;;;;2.27;1.17;;;;;;;12.35;73.10;99121.16;1810270;79;20999;-83
2021/05/22 01:52:47;;;;;;;4.05;1.30;;;;;;;12.33;73.13;99131.05;1813058;79;21012;-83
2021/05/22 01:55:14;;;;;;;2.20;1.00;;;;;;;12.30;73.07;99144.58;1808957;79;21053;-83
2021/05/22 01:57:41;;;;;;;2.02;1.10;;;;;;;12.29;73.18;99149.53;1805192;79;21014;-83
2021/05/22 02:00:10;;;;;;;2.67;1.27;;;;;;;12.28;73.26;99143.42;1778947;79;21557;-83
2021/05/22 02:02:37;;;;;;;2.45;1.70;;;;;;;12.27;73.16;99144.88;1804474;79;21054;-83
2021/05/22 02:05:05;;;;;;;2.72;1.32;;;;;;;12.26;73.29;99137.93;1753767;80;21059;-83
2021/05/22 02:07:34;;;;;;;1.47;1.05;;;;;;;12.25;73.40;99139.75;1764142;81;21070;-83
2021/05/22 02:10:03;;;;;;;2.85;1.30;;;;;;;12.24;73.58;99139.87;1756321;80;21583;-84
2021/05/22 02:12:29;;;;;;;3.10;1.27;;;;;;;12.23;73.53;99139.05;1786217;80;21006;-83
2021/05/22 02:14:57;;;;;;;1.45;0.90;;;;;;;12.22;73.55;99143.19;1783885;79;21058;-83
2021/05/22 02:17:24;;;;;;;1.50;1.00;;;;;;;12.19;73.62;99151.75;1781245;79;21034;-83
2021/05/22 02:19:53;;;;;;;1.90;1.10;;;;;;;12.17;73.62;99143.16;1809965;79;21027;-83
2021/05/22 02:22:22;;;;;;;2.30;1.30;;;;;;;12.16;73.89;99150.73;1812803;79;21012;-83
2021/05/22 02:24:50;;;;;;;2.30;1.30;;;;;;;12.15;73.81;99167.59;1811970;79;21015;-83
2021/05/22 02:27:17;;;;;;;4.30;1.80;;;;;;;12.14;73.71;99170.36;1798718;79;21046;-83
2021/05/22 02:29:45;;;;;;;4.30;2.02;;;;;;;12.13;73.47;99165.56;1808872;79;21007;-83
2021/05/22 02:32:14;;;;;;;4.65;2.27;;;;;;;12.11;73.41;99166.23;1812168;79;21051;-83
2021/05/22 02:34:49;;;;;;;4.95;1.72;;;;;;;12.10;73.63;99161.90;1784879;79;21010;-83
2021/05/22 02:37:19;;;;;;;5.80;1.52;;;;;;;12.09;73.74;99164.70;1780459;80;21047;-83
2021/05/22 02:39:50;;;;;;;5.08;2.05;;;;;;;12.07;73.81;99159.55;1780697;79;21025;-83
2021/05/22 02:42:18;;;;;;;2.12;1.10;;;;;;;12.06;73.72;99154.42;1780435;80;21090;-83
2021/05/22 02:44:46;;;;;;;1.62;1.12;;;;;;;12.06;73.84;99152.61;1808305;79;21620;-83
2021/05/22 02:47:14;;;;;;;3.55;1.42;;;;;;;12.05;73.75;99150.95;1805627;79;21049;-83
2021/05/22 02:49:42;;;;;;;1.95;1.52;;;;;;;12.05;73.87;99141.70;1778743;79;21550;-83
2021/05/22 02:52:13;;;;;;;2.27;1.20;;;;;;;12.04;74.30;99140.02;1806492;79;21027;-83
2021/05/22 02:54:42;;;;;;;2.00;1.12;;;;;;;12.03;73.79;99144.97;1809854;79;20997;-83
2021/05/22 02:57:09;;;;;;;1.82;1.20;;;;;;;12.01;73.77;99142.98;1755046;79;21046;-83
2021/05/22 02:59:36;;;;;;;4.22;1.22;;;;;;;12.01;73.83;99136.84;1746875;80;21030;-83
2021/05/22 03:02:04;;;;;;;2.37;1.25;;;;;;;11.99;73.79;99135.69;1772485;79;21050;-83
2021/05/22 03:04:33;;;;;;;3.33;1.42;;;;;;;11.99;73.73;99140.15;1780185;80;21562;-83
2021/05/22 03:07:01;;;;;;;1.45;1.07;;;;;;;11.97;73.78;99152.17;1780397;79;21050;-83
2021/05/22 03:09:27;;;;;;;2.45;0.95;;;;;;;11.96;73.92;99161.09;1780394;80;21061;-83
2021/05/22 03:11:53;;;;;;;2.30;1.07;;;;;;;11.94;73.81;99164.36;1749408;80;21517;-83
2021/05/22 03:14:19;;;;;;;2.72;1.45;;;;;;;11.94;73.83;99169.65;1803216;79;20975;-83
2021/05/22 03:16:45;;;;;;;1.25;0.80;;;;;;;11.94;74.03;99167.87;1787589;79;20995;-83
2021/05/22 03:19:11;;;;;;;4.03;1.87;;;;;;;11.93;73.91;99158.25;1780378;80;21448;-83
2021/05/22 03:21:37;;;;;;;3.22;1.47;;;;;;;11.89;74.11;99146.81;1780663;79;21015;-83
2021/05/22 03:24:05;;;;;;;4.65;1.67;;;;;;;11.86;74.09;99153.22;1781867;79;21015;-83
2021/05/22 03:26:32;;;;;;;2.80;1.57;;;;;;;11.84;74.20;99151.20;1779960;79;21034;-83
2021/05/22 03:28:57;;;;;;;3.42;1.92;;;;;;;11.84;74.07;99140.63;1780262;79;21530;-83
2021/05/22 03:31:23;;;;;;;2.25;1.05;;;;;;;11.84;74.24;99135.81;1780510;80;21028;-83
2021/05/22 03:33:50;;;;;;;1.65;1.22;;;;;;;11.84;74.10;99135.34;1780219;80;21003;-83
2021/05/22 03:36:16;;;;;;;1.42;1.07;;;;;;;11.85;74.26;99136.20;1768157;79;21053;-83
2021/05/22 03:38:42;;;;;;;2.75;1.05;;;;;;;11.86;74.16;99139.18;1787595;79;21003;-83
2021/05/22 03:41:08;;;;;;;2.70;1.40;;;;;;;11.85;74.38;99137.03;1812231;79;21031;-83
2021/05/22 03:43:34;;;;;;;1.77;1.05;;;;;;;11.85;74.36;99138.84;1810962;79;20982;-82
2021/05/22 03:46:00;;;;;;;1.52;1.12;;;;;;;11.82;74.53;99133.33;1812266;79;21003;-83
2021/05/22 03:48:26;;;;;;;3.83;1.20;;;;;;;11.81;74.51;99132.96;1797907;79;21049;-83
2021/05/22 03:50:54;;;;;;;1.45;1.10;;;;;;;11.81;74.77;99132.14;1802844;79;21314;-83
2021/05/22 03:53:20;;;;;;;2.20;1.27;;;;;;;11.81;74.74;99132.96;1805429;79;21051;-83
2021/05/22 03:55:47;;;;;;;1.72;1.35;;;;;;;11.82;74.68;99135.97;1788557;79;21054;-83
2021/05/22 03:58:13;;;;;;;2.52;1.37;;;;;;;11.84;74.79;99130.52;1804372;79;21037;-83
2021/05/22 04:00:39;;;;;;;2.10;1.12;;;;;;;11.84;75.12;99135.81;1800378;79;21045;-83
2021/05/22 04:03:06;;;;;;;3.92;1.62;;;;;;;11.85;74.73;99145.45;1763203;81;21066;-83
2021/05/22 04:05:34;;;;;;;2.15;1.10;;;;;;;11.85;74.76;99154.70;1763546;81;21058;-83
2021/05/22 04:08:02;;;;;;;2.92;1.15;;;;;;;11.85;74.80;99162.14;1766444;79;21045;-83
2021/05/22 04:10:28;;;;;;;1.90;0.93;;;;;;;11.87;74.87;99176.52;1780348;80;21075;-83
2021/05/22 04:12:54;;;;;;;1.40;1.00;;;;;;;11.88;75.38;99185.64;1780488;79;20987;-83
2021/05/22 04:15:20;;;;;;;2.87;1.27;;;;;;;11.88;75.33;99185.64;1782481;79;21051;-82
2021/05/22 04:17:46;;;;;;;1.47;0.90;;;;;;;11.88;75.71;99184.31;1798974;79;21513;-83
2021/05/22 04:20:13;;;;;;;2.87;1.50;;;;;;;11.88;75.46;99176.88;1811506;79;21050;-83
2021/05/22 04:22:39;;;;;;;3.83;1.47;;;;;;;11.88;75.25;99186.13;1811690;79;21549;-82
2021/05/22 04:25:07;;;;;;;1.55;1.35;;;;;;;11.88;75.36;99181.67;1804570;79;20987;-82
2021/05/22 04:27:33;;;;;;;1.80;1.17;;;;;;;11.89;75.47;99179.36;1807663;79;20995;-83
2021/05/22 04:29:59;;;;;;;3.05;1.47;;;;;;;11.89;75.37;99175.39;1771880;79;21503;-83
2021/05/22 04:32:25;;;;;;;3.30;1.32;;;;;;;11.90;75.45;99174.90;1766648;81;21010;-82
2021/05/22 04:34:51;;;;;;;1.60;1.30;;;;;;;11.90;75.51;99177.05;1800051;79;21034;-82
2021/05/22 04:37:17;;;;;;;2.05;1.00;;;;;;;11.90;75.48;99178.37;1804432;79;21015;-83
2021/05/22 04:39:43;;;;;;;2.45;1.30;;;;;;;11.91;75.50;99173.45;1807963;79;20979;-83
2021/05/22 04:42:09;;;;;;;2.02;1.27;;;;;;;11.94;75.63;99185.52;1812154;79;21611;-83
2021/05/22 04:44:35;;;;;;;2.25;0.90;;;;;;;11.93;75.43;99164.86;1786228;79;20999;-83
2021/05/22 04:47:01;;;;;;;2.30;0.90;;;;;;;11.95;75.62;99148.37;1788092;79;21074;-83
2021/05/22 04:49:27;;;;;;;3.40;1.35;;;;;;;11.98;75.81;99147.25;1812240;79;21533;-83
2021/05/22 04:51:58;;;;;;;1.62;1.40;;;;;;;11.99;75.75;99154.19;1812123;79;21007;-83
2021/05/22 04:54:24;;;;;;;2.30;1.27;;;;;;;12.02;75.73;99166.29;1811630;79;21043;-82
2021/05/22 04:56:50;;;;;;;2.67;1.57;;;;;;;12.01;75.72;99180.00;1812023;79;21042;-81
2021/05/22 04:59:16;;;;;;;1.55;0.98;;;;;;;12.04;75.65;99164.31;1804815;79;21038;-83
2021/05/22 05:01:42;;;;;;;2.72;1.10;;;;;;;12.05;75.58;99168.14;1804451;79;21082;-83
2021/05/22 05:04:09;;;;;;;2.35;1.10;;;;;;;12.08;75.68;99165.20;1809317;79;21560;-83
2021/05/22 05:06:36;;;;;;;2.83;1.60;;;;;;;12.12;75.63;99163.91;1779916;79;21686;-83
2021/05/22 05:09:05;;;;;;;1.67;1.12;;;;;;;12.13;75.73;99161.60;1784910;79;21017;-83
2021/05/22 05:11:31;;;;;;;1.82;1.62;;;;;;;12.15;75.78;99168.91;1774986;79;21027;-82
2021/05/22 05:13:58;;;;;;;2.98;1.82;;;;;;;12.17;75.77;99163.45;1798250;79;21027;-83
2021/05/22 05:16:24;;;;;;;2.98;2.12;;;;;;;12.19;75.84;99166.30;1789975;79;22296;-82
2021/05/22 05:18:51;;;;;;;2.67;1.77;;;;;;;12.20;75.77;99167.95;1780447;79;21035;-83
2021/05/22 05:21:17;;;;;;;3.58;1.62;;;;;;;12.23;75.88;99166.83;1782084;79;21077;-82
2021/05/22 05:23:44;;;;;;;3.47;1.65;;;;;;;12.27;75.98;99163.39;1780253;79;21517;-83
2021/05/22 05:26:10;;;;;;;2.87;1.45;;;;;;;12.30;75.87;99163.91;1801711;79;20979;-82
2021/05/22 05:28:36;;;;;;;2.98;1.47;;;;;;;12.31;75.94;99168.74;1807020;79;21003;-82
2021/05/22 05:31:02;;;;;;;3.55;1.52;;;;;;;12.33;76.06;99163.61;1800350;79;21038;-83
2021/05/22 05:33:29;;;;;;;2.05;1.37;;;;;;;12.35;76.22;99163.48;1791613;79;21049;-82
2021/05/22 05:35:55;;;;;;;2.40;1.37;;;;;;;12.39;76.22;99171.45;1812379;79;21039;-82
2021/05/22 05:38:21;;;;;;;3.62;2.02;;;;;;;12.42;76.46;99185.70;1802952;79;21015;-82
2021/05/22 05:40:47;;;;;;;2.62;1.60;;;;;;;12.44;76.51;99187.22;1794227;79;21003;-84
2021/05/22 05:43:18;;;;;;;2.25;1.72;;;;;;;12.46;76.42;99184.41;1811408;79;21011;-82
2021/05/22 05:45:44;;;;;;;3.00;1.80;;;;;;;12.52;76.44;99181.66;1812065;79;21022;-82
2021/05/22 05:48:10;;;;;;;2.47;1.70;;;;;;;12.55;76.31;99182.19;1812236;79;21664;-83
2021/05/22 05:50:36;;;;;;;4.08;2.08;;;;;;;12.56;76.14;99183.02;1812790;79;21070;-83
2021/05/22 05:53:04;;;;;;;2.58;1.67;;;;;;;12.56;76.18;99178.55;1809694;79;21500;-83
2021/05/22 05:55:30;;;;;;;5.03;1.50;;;;;;;12.58;76.12;99194.28;1805305;79;21499;-83
2021/05/22 05:57:56;;;;;;;2.75;1.85;;;;;;;12.60;76.22;99193.16;1794247;79;20976;-83
2021/05/22 06:00:24;;;;;;;3.98;1.65;;;;;;;12.64;76.33;99208.23;1794959;79;21024;-83
2021/05/22 06:02:51;;;;;;;3.75;1.65;;;;;;;12.67;76.40;99206.61;1790113;79;20999;-82
2021/05/22 06:05:17;;;;;;;3.15;1.35;;;;;;;12.70;76.20;99202.34;1785889;79;20986;-83
2021/05/22 06:07:44;;;;;;;3.10;1.30;;;;;;;12.73;76.60;99203.83;1779691;79;21050;-81
2021/05/22 06:10:11;;;;;;;2.33;1.40;;;;;;;12.77;76.50;99206.53;1781359;80;21090;-83
2021/05/22 06:12:39;;;;;;;2.35;1.95;;;;;;;12.80;76.29;99208.84;1782214;79;21560;-83
2021/05/22 06:15:21;;;;;;;2.10;1.25;;;;;;;12.84;76.14;99210.23;1781096;80;21558;-83
2021/05/22 06:17:35;;;;;;;1.77;1.22;;;;;;;12.88;76.20;99218.20;1776114;80;21078;-83
2021/05/22 06:20:01;;;;;;;2.77;1.72;;;;;;;12.91;76.23;99217.89;1781831;79;21533;-83
2021/05/22 06:22:27;;;;;;;2.85;1.45;;;;;;;12.95;76.15;99222.39;1802461;79;21071;-83
2021/05/22 06:24:53;;;;;;;3.40;1.70;;;;;;;12.98;76.47;99221.59;1813014;79;20995;-83
2021/05/22 06:27:19;;;;;;;2.45;1.07;;;;;;;13.00;76.43;99220.12;1805328;79;21058;-83
2021/05/22 06:29:45;;;;;;;1.50;1.30;;;;;;;13.03;76.49;99220.65;1781285;80;21663;-84
2021/05/22 06:32:10;;;;;;;5.45;1.95;;;;;;;13.06;76.56;99228.75;1794922;79;21027;-84
2021/05/22 06:34:36;;;;;;;2.98;1.45;;;;;;;13.08;76.44;99226.30;1779261;79;21066;-83
2021/05/22 06:37:02;;;;;;;2.00;1.30;;;;;;;13.08;76.25;99221.50;1780848;80;21085;-83
2021/05/22 06:39:28;;;;;;;2.15;1.20;;;;;;;13.08;76.38;99229.44;1781136;80;21010;-83
2021/05/22 06:41:54;;;;;;;2.10;1.67;;;;;;;13.08;76.14;99231.59;1795105;79;21670;-83
2021/05/22 06:44:26;;;;;;;3.40;1.70;;;;;;;13.08;76.34;99238.22;1777678;79;21023;-84
2021/05/22 06:46:48;;;;;;;2.80;1.57;;;;;;;13.08;76.31;99236.89;1805091;79;21620;-82
2021/05/22 06:49:15;;;;;;;1.72;1.40;;;;;;;13.08;76.17;99234.73;1799758;79;21058;-83
2021/05/22 06:51:41;;;;;;;1.87;1.20;;;;;;;13.07;76.38;99243.18;1781612;79;21049;-84
2021/05/22 06:54:08;;;;;;;2.83;1.45;;;;;;;13.07;76.27;99243.67;1787667;79;21058;-84
2021/05/22 06:56:34;;;;;;;3.72;2.00;;;;;;;13.07;76.55;99257.75;1781096;80;20995;-85
2021/05/22 06:58:59;;;;;;;3.42;2.20;;;;;;;13.08;76.31;99250.13;1805465;79;21022;-88
2021/05/22 07:01:26;;;;;;;3.40;2.22;;;;;;;13.07;76.01;99245.83;1787835;79;20997;-90
2021/05/22 07:03:54;;;;;;;3.92;1.62;;;;;;;13.05;76.04;99258.38;1795317;79;20999;-88
2021/05/22 07:06:23;;;;;;;3.15;1.80;;;;;;;13.04;76.23;99262.02;1813402;79;21585;-86
2021/05/22 07:08:53;;;;;;;4.83;1.65;;;;;;;13.04;76.21;99267.32;1808453;79;21062;-88
2021/05/22 07:11:18;;;;;;;2.75;1.52;;;;;;;13.02;76.40;99259.19;1787585;78;21148;-85
2021/05/22 07:13:45;;;;;;;3.70;1.77;;;;;;;13.00;76.64;99266.47;1785906;79;21921;-83
2021/05/22 07:16:11;;;;;;;3.92;2.37;;;;;;;12.98;76.74;99271.90;1801955;79;22459;-83
2021/05/22 07:18:36;;;;;;;4.60;2.20;;;;;;;12.97;76.92;99280.84;1781112;79;21023;-83
2021/05/22 07:21:02;;;;;;;4.42;1.80;;;;;;;12.94;77.16;99286.44;1789494;79;21004;-83
2021/05/22 07:23:29;;;;;;;2.30;1.47;;;;;;;12.90;77.37;99283.26;1777501;79;21021;-84
2021/05/22 07:25:54;;;;;;;2.90;1.90;;;;;;;12.87;77.26;99280.09;1769567;79;21001;-83
2021/05/22 07:28:21;;;;;;;2.70;1.80;;;;;;;12.85;77.52;99286.01;1794483;79;21066;-83
2021/05/22 07:30:46;;;;;;;3.98;1.92;;;;;;;12.84;77.61;99285.68;1805525;79;21014;-84
2021/05/22 07:33:14;;;;;;;3.85;1.77;;;;;;;12.83;77.73;99279.56;1775586;79;21022;-83
2021/05/22 07:35:41;;;;;;;3.62;2.27;;;;;;;12.86;78.13;99287.66;1805566;79;21625;-83
2021/05/22 07:38:07;;;;;;;5.30;1.90;;;;;;;12.84;78.07;99285.19;1803849;79;21077;-84
2021/05/22 07:40:33;;;;;;;2.67;1.87;;;;;;;12.85;77.94;99286.01;1782026;79;21017;-83
2021/05/22 07:42:59;;;;;;;2.80;1.72;;;;;;;12.84;78.24;99289.65;1795861;79;21094;-83
2021/05/22 07:45:25;;;;;;;2.55;1.40;;;;;;;12.85;78.45;99292.63;1794429;79;21034;-84
2021/05/22 07:47:51;;;;;;;2.08;1.40;;;;;;;12.85;78.75;99297.42;1791130;79;21525;-84
2021/05/22 07:50:17;;;;;;;2.85;1.42;;;;;;;12.83;78.53;99297.23;1792567;79;21041;-84
2021/05/22 07:52:43;;;;;;;3.10;1.57;;;;;;;12.81;78.65;99297.89;1795201;79;21070;-84
2021/05/22 07:55:11;;;;;;;2.95;1.52;;;;;;;12.72;78.76;99281.58;1786700;78;21019;-85
2021/05/22 07:57:38;;;;;;;2.58;1.10;;;;;;;12.76;78.82;99292.20;1788468;78;21014;-85
2021/05/22 08:00:08;;;;;;;1.90;0.93;;;;;;;12.74;79.14;99300.80;1799776;78;21019;-85
2021/05/22 08:02:34;;;;;;;1.15;1.02;;;;;;;12.73;79.09;99288.53;1766178;80;21305;-85
2021/05/22 08:05:00;;;;;;;4.25;1.50;;;;;;;12.70;79.17;99281.75;1781663;79;21026;-84
2021/05/22 08:07:28;;;;;;;1.98;1.17;;;;;;;12.71;79.30;99279.92;1780468;80;21046;-84
2021/05/22 08:09:54;;;;;;;3.10;1.10;;;;;;;12.67;79.34;99288.16;1780372;79;21047;-84
2021/05/22 08:12:20;;;;;;;2.17;1.12;;;;;;;12.66;79.29;99290.45;1779870;80;21029;-84
2021/05/22 08:14:46;;;;;;;1.32;0.80;;;;;;;12.65;79.68;99272.91;1780470;80;20997;-83
2021/05/22 08:17:12;;;;;;;1.62;1.12;;;;;;;12.63;79.59;99261.63;1779516;80;21064;-82
2021/05/22 08:19:37;;;;;;;1.80;1.10;;;;;;;12.62;79.60;99253.37;1780491;80;21044;-81
2021/05/22 08:22:04;;;;;;;2.12;1.10;;;;;;;12.60;79.54;99250.52;1780068;80;21056;-83
2021/05/22 08:24:30;;;;;;;2.33;1.55;;;;;;;12.61;79.74;99254.85;1781063;79;21046;-82
2021/05/22 08:26:55;;;;;;;2.22;1.45;;;;;;;12.63;80.05;99253.70;1825848;78;21588;-83
2021/05/22 08:29:22;;;;;;;2.08;1.30;;;;;;;12.67;80.36;99266.16;1806749;78;21023;-83
2021/05/22 08:31:48;;;;;;;3.60;1.75;;;;;;;12.73;80.50;99277.94;1785701;78;30566;-83
2021/05/22 08:34:14;;;;;;;4.72;1.80;;;;;;;12.80;80.59;99273.70;1784464;78;21044;-83
2021/05/22 08:36:40;;;;;;;3.40;1.67;;;;;;;12.85;81.08;99265.66;1781851;80;21011;-82
2021/05/22 08:39:06;;;;;;;2.35;1.65;;;;;;;12.90;80.77;99269.20;1782778;78;20998;-83
2021/05/22 08:41:34;;;;;;;1.85;1.30;;;;;;;12.94;80.82;99282.46;1781878;80;21558;-83
2021/05/22 08:44:03;;;;;;;2.37;1.27;;;;;;;12.97;80.71;99289.27;1790260;78;21027;-82
2021/05/22 08:46:32;;;;;;;4.53;2.33;;;;;;;13.00;80.73;99282.36;1795263;79;21054;-83
2021/05/22 08:48:59;;;;;;;2.27;1.15;;;;;;;13.01;80.65;99279.54;1805729;78;21017;-84
2021/05/22 08:51:25;;;;;;;3.87;1.90;;;;;;;13.04;80.81;99285.86;1823035;78;21049;-85
2021/05/22 08:53:51;;;;;;;2.67;1.47;;;;;;;13.04;80.65;99279.23;1782860;78;21080;-85
2021/05/22 08:56:18;;;;;;;4.53;1.57;;;;;;;13.05;80.84;99273.44;1783641;79;21066;-84
2021/05/22 08:58:46;;;;;;;2.08;1.55;;;;;;;13.07;81.07;99262.22;1791372;79;21029;-82
2021/05/22 09:01:12;;;;;;;3.72;1.98;;;;;;;13.07;80.84;99264.37;1833942;78;21066;-85
2021/05/22 09:03:38;;;;;;;6.22;1.70;;;;;;;13.06;80.67;99258.74;1835919;78;21033;-82
2021/05/22 09:06:05;;;;;;;2.50;1.45;;;;;;;13.13;81.41;99256.31;1792602;78;21005;-84
2021/05/22 09:08:34;;;;;;;1.65;1.27;;;;;;;13.20;81.31;99242.78;1805432;78;21045;-83
2021/05/22 09:11:06;;;;;;;4.00;1.75;;;;;;;13.30;81.71;99252.00;1794641;78;21059;-84
2021/05/22 09:13:35;;;;;;;2.22;1.35;;;;;;;13.35;80.89;99249.20;1797421;78;21005;-84
2021/05/22 09:16:09;;;;;;;2.95;1.80;;;;;;;13.40;81.26;99259.34;1785636;79;21061;-82
2021/05/22 09:18:46;;;;;;;4.55;1.52;;;;;;;13.43;80.87;99271.47;1811031;78;21585;-83
2021/05/22 09:21:14;;;;;;;1.35;1.02;;;;;;;13.45;80.84;99262.34;1835330;78;21026;-81
2021/05/22 09:23:43;;;;;;;1.50;0.93;;;;;;;13.44;80.07;99262.02;1812955;78;21034;-82
2021/05/22 09:26:13;;;;;;;2.58;1.82;;;;;;;13.40;79.63;99264.65;1803042;79;21064;-82
2021/05/22 09:28:49;;;;;;;1.45;1.10;;;;;;;13.36;79.49;99263.30;1797059;78;21005;-86
2021/05/22 09:31:19;;;;;;;2.47;1.67;;;;;;;13.32;79.66;99260.10;1789217;78;21034;-84
2021/05/22 09:33:46;;;;;;;2.67;1.50;;;;;;;13.31;79.87;99262.92;1819562;78;21077;-84
2021/05/22 09:36:15;;;;;;;2.45;1.50;;;;;;;13.29;79.95;99263.09;1835464;78;21513;-84
2021/05/22 09:38:52;;;;;;;3.55;1.17;;;;;;;13.29;80.07;99271.50;1818934;78;21073;-84
2021/05/22 09:41:34;;;;;;;4.03;2.08;;;;;;;13.28;80.30;99267.20;1790760;79;21108;-86
2021/05/22 09:44:16;;;;;;;2.70;1.57;;;;;;;13.28;80.13;99259.25;1805051;78;21051;-81
2021/05/22 09:46:53;;;;;;;2.43;1.80;;;;;;;13.29;80.07;99263.09;1793455;78;21508;-80
2021/05/22 09:49:29;;;;;;;3.83;2.62;;;;;;;13.28;80.17;99256.11;1787664;78;21517;-81
2021/05/22 09:52:15;;;;;;;3.52;1.95;;;;;;;13.30;80.43;99257.30;1782889;79;21088;-81
2021/05/22 09:54:58;;;;;;;2.22;1.42;;;;;;;13.35;80.58;99252.34;1789122;78;21151;-81
2021/05/22 09:57:39;;;;;;;2.60;1.73;;;;;;;13.38;80.28;99244.09;1798716;78;21670;-82
2021/05/22 10:00:15;;;;;;;2.05;1.02;;;;;;;13.44;80.33;99246.62;1796873;78;21060;-82
2021/05/22 10:03:05;;;;;;;1.75;0.90;;;;;;;13.47;79.75;99245.81;1802383;78;21653;-82
2021/05/22 10:05:33;;;;;;;2.05;0.90;;;;;;;13.50;79.64;99232.25;1785414;78;21065;-82
2021/05/22 10:08:03;;;;;;;1.52;0.90;;;;;;;13.55;79.57;99231.27;1789115;78;21036;-81
2021/05/22 10:10:44;;;;;;;1.40;1.02;;;;;;;13.61;79.34;99239.92;1783350;78;21049;-81
2021/05/22 10:13:10;;;;;;;2.22;1.50;;;;;;;13.66;79.24;99232.02;1754044;78;21114;-81
2021/05/22 10:15:36;;;;;;;1.87;0.98;;;;;;;13.75;79.34;99227.06;1794233;78;21062;-85
2021/05/22 10:18:05;;;;;;;1.92;1.20;;;;;;;13.84;78.84;99225.63;1813555;79;21074;-82
2021/05/22 10:20:32;;;;;;;2.15;1.70;;;;;;;13.99;79.34;99234.32;1813662;79;21011;-82
2021/05/22 10:22:58;;;;;;;1.87;1.25;;;;;;;14.15;79.53;99229.08;1806403;78;21010;-84
2021/05/22 10:25:24;;;;;;;1.45;0.72;;;;;;;14.34;79.79;99230.59;1800678;78;21515;-86
2021/05/22 10:27:50;;;;;;;2.60;1.30;;;;;;;14.56;79.49;99231.02;1796970;78;21005;-86
2021/05/22 10:30:19;;;;;;;1.55;1.00;;;;;;;14.76;79.25;99234.52;1797974;78;20998;-88
2021/05/22 10:32:46;;;;;;;1.65;1.20;;;;;;;14.81;76.68;99235.38;1802265;79;21054;-84
2021/05/22 10:35:24;;;;;;;2.02;0.98;;;;;;;14.82;76.08;99232.22;1805862;78;21520;-88
2021/05/22 10:37:49;;;;;;;1.40;1.30;;;;;;;14.83;76.31;99226.73;1835058;78;21085;-85
2021/05/22 10:40:22;;;;;;;2.60;0.70;;;;;;;14.85;74.89;99234.55;1815696;78;21543;-86
2021/05/22 10:42:56;;;;;;;5.40;1.25;;;;;;;14.88;75.00;99232.89;1795298;78;21053;-85
2021/05/22 10:45:33;;;;;;;0.93;0.68;;;;;;;14.86;73.97;99237.52;1795598;78;21020;-85
2021/05/22 10:48:02;;;;;;;1.22;0.75;;;;;;;14.77;73.41;99241.98;1797876;79;21027;-88
2021/05/22 10:50:47;;;;;;;0.90;0.80;;;;;;;14.68;73.11;99243.83;1803966;78;21566;-87
2021/05/22 10:53:33;;;;;;;1.32;0.80;;;;;;;14.67;74.20;99240.81;1797131;78;21033;-92
2021/05/22 10:56:07;;;;;;;1.60;0.90;;;;;;;14.79;75.27;99233.38;1795031;78;21017;-85
2021/05/22 10:58:38;;;;;;;1.40;0.98;;;;;;;14.88;74.56;99238.20;1789416;78;21034;-89
2021/05/22 11:01:35;;;;;;;3.83;1.87;;;;;;;14.91;74.02;99240.53;1802235;78;21567;-91
2021/05/22 11:04:18;;;;;;;1.87;1.00;;;;;;;14.95;74.91;99238.69;1719276;80;21579;-89
2021/05/22 11:06:50;;;;;;;1.55;1.12;;;;;;;15.15;74.95;99233.87;1781247;80;21124;-84
2021/05/22 11:09:31;;;;;;;1.00;0.68;;;;;;;15.37;74.80;99232.36;1786637;79;21036;-90
2021/05/22 11:12:29;;;;;;;1.80;1.02;;;;;;;15.64;74.70;99223.16;1787850;78;21008;-86
2021/05/22 11:14:53;;;;;;;3.08;0.93;;;;;;;15.94;76.18;99214.93;1786399;78;21625;-85
2021/05/22 11:17:29;;;;;;;1.47;0.80;;;;;;;16.13;71.95;99221.67;1796839;79;21066;-88
2021/05/22 11:20:10;;;;;;;1.42;1.12;;;;;;;16.12;71.19;99210.70;1797478;78;21571;-88
2021/05/22 11:22:52;;;;;;;2.47;0.68;;;;;;;16.12;70.93;99212.04;1792504;78;21021;-90
2021/05/22 11:25:18;;;;;;;4.15;1.02;;;;;;;16.18;69.62;99211.31;1806216;78;21705;-83
2021/05/22 11:28:00;;;;;;;3.30;1.30;;;;;;;16.20;68.82;99214.33;1811675;78;21003;-87
2021/05/22 11:30:40;;;;;;;2.37;1.10;;;;;;;16.20;69.40;99209.83;1801244;79;21046;-88
2021/05/22 11:33:09;;;;;;;1.67;0.80;;;;;;;16.28;68.49;99209.77;1791136;78;21054;-83
2021/05/22 11:35:44;;;;;;;3.25;1.07;;;;;;;16.50;67.85;99204.66;1822348;78;21010;-84
2021/05/22 11:38:25;;;;;;;1.55;0.98;;;;;;;16.69;68.63;99205.52;1795675;78;21060;-89
2021/05/22 11:40:57;;;;;;;2.85;1.25;;;;;;;16.77;67.39;99202.81;1789575;79;21119;-80